createdAt,value
2023-10-12T00:01:50.728Z,16.70
2023-10-12T00:05:12.629Z,16.80
2023-10-12T00:08:35.116Z,16.70
2023-10-12T00:12:00.010Z,16.70
2023-10-12T00:15:23.781Z,16.80
2023-10-12T00:18:45.528Z,16.70
2023-10-12T00:22:07.286Z,16.60
2023-10-12T00:25:29.020Z,16.50
2023-10-12T00:28:50.642Z,16.40
2023-10-12T00:32:13.644Z,16.20
2023-10-12T00:35:35.424Z,16.10
2023-10-12T00:38:57.740Z,15.90
2023-10-12T00:42:19.793Z,15.70
2023-10-12T00:45:41.632Z,15.50
2023-10-12T00:49:05.018Z,15.40
2023-10-12T00:52:26.923Z,15.20
2023-10-12T00:55:48.674Z,15.10
2023-10-12T00:59:10.356Z,15.10
2023-10-12T01:02:32.008Z,14.90
2023-10-12T01:05:55.079Z,14.90
2023-10-12T01:09:16.772Z,14.80
2023-10-12T01:12:38.411Z,14.70
2023-10-12T01:16:00.234Z,14.70
2023-10-12T01:19:22.233Z,14.70
2023-10-12T01:22:45.695Z,14.90
2023-10-12T01:26:08.510Z,15.00
2023-10-12T01:29:30.235Z,15.00
2023-10-12T01:32:51.912Z,15.10
2023-10-12T01:36:13.588Z,15.10
2023-10-12T01:39:36.607Z,15.10
2023-10-12T01:42:58.372Z,15.00
2023-10-12T01:46:20.150Z,14.80
2023-10-12T01:49:41.906Z,14.60
2023-10-12T01:53:03.704Z,14.40
2023-10-12T01:56:26.689Z,14.20
2023-10-12T01:59:48.308Z,14.00
2023-10-12T02:03:10.259Z,13.80
2023-10-12T02:06:31.902Z,13.70
2023-10-12T02:09:59.890Z,13.60
2023-10-12T02:13:24.376Z,13.60
2023-10-12T02:16:46.428Z,13.50
2023-10-12T02:20:08.702Z,13.40
2023-10-12T02:23:30.339Z,13.50
2023-10-12T02:26:51.974Z,13.50
2023-10-12T02:30:15.298Z,13.50
2023-10-12T02:33:36.949Z,13.50
2023-10-12T02:36:59.471Z,13.60
2023-10-12T02:40:21.189Z,13.60
2023-10-12T02:43:42.840Z,13.50
2023-10-12T02:47:05.834Z,13.50
2023-10-12T02:50:27.618Z,13.40
2023-10-12T02:53:49.425Z,13.30
2023-10-12T02:57:11.056Z,13.30
2023-10-12T03:00:32.710Z,13.20
2023-10-12T03:03:55.910Z,13.20
2023-10-12T03:07:18.232Z,13.10
2023-10-12T03:10:39.855Z,13.10
2023-10-12T03:14:01.543Z,13.10
2023-10-12T03:17:23.217Z,13.30
2023-10-12T03:20:46.182Z,13.30
2023-10-12T03:24:08.223Z,13.40
2023-10-12T03:27:29.901Z,13.30
2023-10-12T03:30:51.722Z,13.30
2023-10-12T03:34:13.556Z,13.20
2023-10-12T03:37:36.536Z,13.00
2023-10-12T03:40:58.138Z,12.90
2023-10-12T03:44:19.911Z,12.80
2023-10-12T03:47:41.759Z,12.80
2023-10-12T03:51:03.441Z,12.80
2023-10-12T03:54:26.493Z,12.80
2023-10-12T03:57:48.265Z,12.80
2023-10-12T04:01:10.083Z,12.70
2023-10-12T04:04:31.836Z,12.70
2023-10-12T04:07:53.529Z,12.70
2023-10-12T04:11:16.586Z,12.70
2023-10-12T04:14:38.654Z,12.70
2023-10-12T04:18:01.051Z,12.70
2023-10-12T04:21:23.125Z,12.80
2023-10-12T04:24:44.990Z,12.80
2023-10-12T04:28:08.102Z,12.90
2023-10-12T04:31:29.768Z,13.00
2023-10-12T04:34:51.869Z,13.20
2023-10-12T04:38:13.549Z,13.40
2023-10-12T04:41:35.318Z,13.20
2023-10-12T04:44:58.352Z,12.90
2023-10-12T04:48:20.007Z,12.60
2023-10-12T04:51:41.780Z,12.40
2023-10-12T04:55:03.689Z,12.30
2023-10-12T04:58:25.345Z,12.20
2023-10-12T05:01:48.373Z,12.10
2023-10-12T05:05:10.248Z,12.10
2023-10-12T05:08:32.510Z,12.00
2023-10-12T05:11:54.136Z,12.10
2023-10-12T05:15:15.769Z,12.30
2023-10-12T05:18:38.891Z,12.40
2023-10-12T05:22:00.739Z,12.60
2023-10-12T05:25:22.473Z,12.80
2023-10-12T05:28:44.148Z,13.00
2023-10-12T05:32:06.036Z,13.20
2023-10-12T05:35:31.733Z,13.30
2023-10-12T05:38:53.495Z,13.40
2023-10-12T05:42:15.346Z,13.40
2023-10-12T05:45:37.111Z,13.40
2023-10-12T05:48:58.801Z,13.30
2023-10-12T05:52:21.948Z,13.30
2023-10-12T05:55:43.735Z,13.20
2023-10-12T05:59:05.398Z,13.20
2023-10-12T06:02:27.148Z,13.10
2023-10-12T06:05:48.872Z,13.10
2023-10-12T06:09:12.436Z,13.20
2023-10-12T06:12:34.112Z,13.30
2023-10-12T06:15:55.794Z,13.50
2023-10-12T06:19:17.452Z,13.70
2023-10-12T06:22:39.142Z,13.90
2023-10-12T06:26:07.712Z,14.10
2023-10-12T06:29:31.186Z,14.30
2023-10-12T06:32:52.890Z,14.50
2023-10-12T06:36:14.616Z,14.70
2023-10-12T06:39:36.299Z,14.80
2023-10-12T06:42:59.983Z,15.00
2023-10-12T06:46:21.719Z,15.10
2023-10-12T06:49:43.369Z,15.30
2023-10-12T06:53:05.030Z,15.50
2023-10-12T06:56:26.700Z,15.70
2023-10-12T06:59:50.292Z,15.60
2023-10-12T07:03:12.006Z,15.60
2023-10-12T07:06:34.242Z,15.60
2023-10-12T07:09:57.684Z,15.60
2023-10-12T07:13:19.430Z,15.80
2023-10-12T07:16:43.116Z,16.10
2023-10-12T07:20:05.526Z,16.40
2023-10-12T07:23:27.260Z,16.70
2023-10-12T07:26:48.906Z,16.70
2023-10-12T07:30:11.115Z,17.00
2023-10-12T07:33:34.275Z,17.30
2023-10-12T07:36:56.109Z,17.60
2023-10-12T07:40:17.862Z,17.90
2023-10-12T07:43:39.680Z,18.00
2023-10-12T07:47:01.428Z,18.10
2023-10-12T07:50:24.580Z,17.90
2023-10-12T07:53:46.974Z,17.90
2023-10-12T07:57:08.796Z,18.40
2023-10-12T08:00:30.453Z,18.90
2023-10-12T08:03:52.584Z,18.60
2023-10-12T08:07:15.790Z,18.40
2023-10-12T08:10:38.257Z,18.10
2023-10-12T08:13:59.907Z,18.30
2023-10-12T08:17:21.825Z,18.90
2023-10-12T08:20:43.451Z,19.00
2023-10-12T08:24:07.248Z,18.90
2023-10-12T08:27:28.936Z,18.80
2023-10-12T08:30:50.651Z,18.80
2023-10-12T08:34:12.725Z,19.20
2023-10-12T08:37:34.630Z,19.90
2023-10-12T08:40:57.733Z,20.30
2023-10-12T08:44:20.811Z,20.40
2023-10-12T08:47:43.313Z,20.40
2023-10-12T08:51:08.081Z,20.20
2023-10-12T08:54:29.728Z,20.20
2023-10-12T08:57:57.706Z,20.10
2023-10-12T09:01:19.631Z,20.00
2023-10-12T09:04:41.431Z,19.90
2023-10-12T09:08:03.755Z,19.80
2023-10-12T09:11:25.448Z,19.80
2023-10-12T09:14:48.463Z,19.70
2023-10-12T09:18:10.261Z,19.70
2023-10-12T09:21:32.034Z,19.70
2023-10-12T09:24:53.999Z,19.70
2023-10-12T09:28:15.758Z,19.70
2023-10-12T09:31:39.314Z,19.90
2023-10-12T09:35:01.123Z,19.90
2023-10-12T09:38:22.797Z,20.00
2023-10-12T09:41:45.322Z,20.10
2023-10-12T09:45:13.080Z,20.20
2023-10-12T09:48:45.420Z,20.30
2023-10-12T09:52:09.538Z,20.40
2023-10-12T09:55:33.642Z,20.60
2023-10-12T09:58:55.598Z,20.70
2023-10-12T10:02:17.490Z,20.80
2023-10-12T10:05:42.531Z,20.80
2023-10-12T10:09:04.535Z,20.90
2023-10-12T10:12:26.293Z,20.80
2023-10-12T10:15:48.709Z,20.90
2023-10-12T10:19:13.691Z,20.90
2023-10-12T10:22:36.721Z,20.80
2023-10-12T10:25:58.908Z,20.80
2023-10-12T10:29:20.554Z,20.90
2023-10-12T10:32:42.231Z,20.80
2023-10-12T10:36:04.614Z,20.80
2023-10-12T10:39:27.631Z,20.80
2023-10-12T10:42:49.483Z,20.80
2023-10-12T10:46:12.679Z,20.80
2023-10-12T10:49:35.558Z,20.90
2023-10-12T10:52:57.628Z,20.90
2023-10-12T10:56:22.328Z,21.00
2023-10-12T10:59:46.660Z,21.00
2023-10-12T11:03:09.459Z,21.00
2023-10-12T11:06:31.203Z,21.00
2023-10-12T11:09:53.822Z,21.00
2023-10-12T11:13:17.325Z,21.10
2023-10-12T11:16:39.142Z,21.20
2023-10-12T11:20:00.910Z,21.30
2023-10-12T11:23:22.615Z,21.40
2023-10-12T11:26:50.920Z,21.40
2023-10-12T11:30:28.943Z,21.40
2023-10-12T11:33:50.806Z,21.40
2023-10-12T11:37:12.657Z,21.40
2023-10-12T11:40:34.295Z,21.40
2023-10-12T11:43:56.289Z,21.40
2023-10-12T11:47:34.401Z,21.40
2023-10-12T11:50:56.644Z,21.40
2023-10-12T11:54:18.564Z,21.50
2023-10-12T11:57:40.367Z,21.60
2023-10-12T12:01:02.065Z,21.80
2023-10-12T12:04:25.220Z,22.00
2023-10-12T12:07:46.890Z,22.10
2023-10-12T12:11:08.547Z,22.20
2023-10-12T12:14:30.201Z,22.30
2023-10-12T12:17:51.937Z,22.40
2023-10-12T12:21:15.113Z,22.50
2023-10-12T12:24:36.752Z,22.50
2023-10-12T12:27:58.476Z,22.40
2023-10-12T12:31:20.219Z,22.30
2023-10-12T12:34:41.882Z,22.20
2023-10-12T12:38:07.301Z,22.10
2023-10-12T12:41:28.912Z,22.10
2023-10-12T12:44:50.552Z,22.00
2023-10-12T12:48:12.267Z,22.00
2023-10-12T12:51:34.197Z,21.90
2023-10-12T12:54:57.326Z,21.90
2023-10-12T12:58:19.073Z,21.90
2023-10-12T13:01:40.804Z,21.80
2023-10-12T13:05:02.531Z,21.80
2023-10-12T13:08:24.170Z,21.80
2023-10-12T13:11:47.154Z,21.80
2023-10-12T13:15:09.729Z,21.70
2023-10-12T13:18:31.745Z,21.60
2023-10-12T13:21:53.603Z,21.40
2023-10-12T13:25:17.465Z,21.30
2023-10-12T13:28:40.882Z,21.20
2023-10-12T13:32:02.523Z,21.10
2023-10-12T13:35:24.210Z,21.10
2023-10-12T13:38:45.871Z,21.10
2023-10-12T13:42:07.481Z,21.20
2023-10-12T13:45:30.495Z,21.40
2023-10-12T13:48:52.155Z,21.50
2023-10-12T13:52:13.838Z,21.70
2023-10-12T13:55:36.401Z,21.80
2023-10-12T13:58:58.042Z,21.80
2023-10-12T14:02:21.073Z,21.90
2023-10-12T14:05:42.888Z,21.90
2023-10-12T14:09:04.591Z,21.90
2023-10-12T14:12:26.224Z,22.00
2023-10-12T14:15:47.983Z,22.00
2023-10-12T14:19:11.083Z,22.00
2023-10-12T14:22:32.886Z,22.10
2023-10-12T14:25:54.961Z,22.10
2023-10-12T14:29:16.602Z,22.10
2023-10-12T14:32:38.388Z,22.10
2023-10-12T14:36:01.430Z,22.10
2023-10-12T14:39:23.276Z,22.10
2023-10-12T14:42:44.912Z,22.10
2023-10-12T14:46:09.146Z,22.10
2023-10-12T14:49:32.769Z,22.10
2023-10-12T14:52:57.555Z,22.10
2023-10-12T14:56:23.667Z,22.10
2023-10-12T14:59:45.290Z,22.10
2023-10-12T15:03:07.003Z,22.00
2023-10-12T15:06:28.765Z,22.00
2023-10-12T15:09:51.796Z,21.90
2023-10-12T15:13:13.861Z,21.90
2023-10-12T15:16:35.675Z,21.90
2023-10-12T15:19:57.599Z,21.80
2023-10-12T15:23:20.161Z,21.80
2023-10-12T15:26:43.318Z,21.70
2023-10-12T15:30:05.586Z,21.50
2023-10-12T15:33:27.354Z,21.50
2023-10-12T15:36:49.256Z,21.50
2023-10-12T15:40:11.170Z,21.50
2023-10-12T15:43:35.553Z,21.40
2023-10-12T15:47:01.731Z,21.40
2023-10-12T15:50:29.115Z,21.30
2023-10-12T15:53:51.214Z,21.20
2023-10-12T15:57:14.188Z,21.20
2023-10-12T16:00:44.275Z,21.20
2023-10-12T16:04:20.402Z,21.20
2023-10-12T16:07:44.844Z,21.10
2023-10-12T16:11:07.305Z,21.00
2023-10-12T16:14:30.002Z,20.90
2023-10-12T16:17:53.268Z,20.80
2023-10-12T16:21:15.213Z,20.70
2023-10-12T16:24:37.269Z,20.60
2023-10-12T16:27:58.936Z,20.50
2023-10-12T16:31:20.653Z,20.50
2023-10-12T16:34:43.698Z,20.50
2023-10-12T16:38:05.337Z,20.50
2023-10-12T16:41:27.199Z,20.40
2023-10-12T16:44:48.897Z,20.40
2023-10-12T16:48:10.658Z,20.40
2023-10-12T16:51:33.734Z,20.30
2023-10-12T16:54:55.408Z,20.30
2023-10-12T16:58:17.089Z,20.20
2023-10-12T17:01:39.264Z,20.20
2023-10-12T17:05:00.976Z,20.20
2023-10-12T17:08:23.985Z,20.10
2023-10-12T17:11:45.591Z,20.10
2023-10-12T17:15:07.807Z,20.10
2023-10-12T17:18:29.465Z,20.10
2023-10-12T17:21:51.135Z,20.20
2023-10-12T17:25:14.518Z,20.10
2023-10-12T17:28:36.348Z,20.10
2023-10-12T17:31:58.208Z,20.10
2023-10-12T17:35:19.876Z,20.10
2023-10-12T17:38:42.700Z,20.20
2023-10-12T17:42:05.729Z,20.20
2023-10-12T17:45:27.501Z,20.30
2023-10-12T17:48:49.906Z,20.30
2023-10-12T17:52:11.736Z,20.30
2023-10-12T17:55:36.616Z,20.20
2023-10-12T17:58:59.734Z,20.10
2023-10-12T18:02:21.364Z,20.10
2023-10-12T18:05:43.165Z,20.00
2023-10-12T18:09:04.882Z,20.00
2023-10-12T18:12:26.501Z,20.00
2023-10-12T18:15:55.704Z,19.90
2023-10-12T18:19:17.494Z,19.80
2023-10-12T18:22:39.352Z,19.70
2023-10-12T18:26:01.228Z,19.70
2023-10-12T18:29:22.971Z,19.70
2023-10-12T18:32:47.274Z,19.80
2023-10-12T18:36:10.063Z,19.90
2023-10-12T18:39:31.754Z,19.90
2023-10-12T18:42:53.427Z,20.00
2023-10-12T18:46:15.190Z,20.00
2023-10-12T18:49:38.322Z,20.00
2023-10-12T18:53:00.119Z,19.90
2023-10-12T18:56:21.872Z,19.80
2023-10-12T18:59:43.600Z,19.80
2023-10-12T19:03:05.475Z,19.80
2023-10-12T19:06:33.682Z,19.80
2023-10-12T19:10:02.398Z,19.70
2023-10-12T19:13:24.935Z,19.60
2023-10-12T19:16:46.782Z,19.70
2023-10-12T19:20:08.889Z,19.70
2023-10-12T19:23:34.752Z,19.70
2023-10-12T19:26:58.354Z,19.60
2023-10-12T19:30:20.456Z,19.60
2023-10-12T19:33:50.558Z,19.50
2023-10-12T19:37:13.446Z,19.50
2023-10-12T19:40:38.382Z,19.50
2023-10-12T19:44:01.104Z,19.50
2023-10-12T19:47:23.804Z,19.50
2023-10-12T19:50:50.859Z,19.40
2023-10-12T19:54:12.850Z,19.40
2023-10-12T19:57:36.067Z,19.40
2023-10-12T20:00:58.833Z,19.40
2023-10-12T20:04:20.579Z,19.30
2023-10-12T20:07:42.222Z,19.30
2023-10-12T20:11:08.780Z,19.30
2023-10-12T20:14:31.745Z,19.30
2023-10-12T20:17:59.975Z,19.30
2023-10-12T20:21:22.338Z,19.30
2023-10-12T20:24:45.647Z,19.30
2023-10-12T20:28:07.399Z,19.20
2023-10-12T20:31:30.611Z,19.10
2023-10-12T20:34:52.323Z,19.00
2023-10-12T20:38:14.259Z,19.00
2023-10-12T20:41:35.915Z,19.00
2023-10-12T20:44:57.540Z,19.00
2023-10-12T20:48:20.549Z,19.00
2023-10-12T20:51:42.235Z,19.00
2023-10-12T20:55:04.026Z,19.00
2023-10-12T20:58:26.304Z,19.00
2023-10-12T21:01:48.432Z,19.10
2023-10-12T21:05:11.877Z,19.10
2023-10-12T21:08:33.599Z,19.10
2023-10-12T21:11:55.262Z,19.00
2023-10-12T21:15:16.981Z,19.00
2023-10-12T21:18:38.588Z,19.10
2023-10-12T21:22:01.557Z,19.10
2023-10-12T21:25:23.247Z,19.10
2023-10-12T21:28:44.881Z,19.10
2023-10-12T21:32:06.549Z,19.10
2023-10-12T21:35:28.196Z,19.10
2023-10-12T21:38:51.267Z,19.10
2023-10-12T21:42:13.539Z,19.10
2023-10-12T21:45:35.265Z,19.10
2023-10-12T21:48:57.104Z,19.00
2023-10-12T21:52:18.758Z,19.00
2023-10-12T21:55:43.584Z,18.90
2023-10-12T21:59:08.881Z,18.80
2023-10-12T22:02:30.626Z,18.80
2023-10-12T22:05:52.319Z,18.70
2023-10-12T22:09:13.939Z,18.60
2023-10-12T22:12:36.922Z,18.40
2023-10-12T22:15:58.658Z,18.40
2023-10-12T22:19:20.741Z,18.40
2023-10-12T22:22:42.602Z,18.40
2023-10-12T22:26:04.198Z,18.40
2023-10-12T22:29:27.397Z,18.40
2023-10-12T22:32:49.065Z,18.30
2023-10-12T22:36:10.785Z,18.40
2023-10-12T22:39:32.485Z,18.40
2023-10-12T22:42:54.285Z,18.40
2023-10-12T22:46:17.325Z,18.40
2023-10-12T22:49:39.031Z,18.40
2023-10-12T22:53:00.840Z,18.40
2023-10-12T22:56:22.651Z,18.30
2023-10-12T22:59:44.570Z,18.30
2023-10-12T23:03:07.807Z,18.30
2023-10-12T23:06:30.001Z,18.20
2023-10-12T23:09:51.916Z,18.20
2023-10-12T23:13:14.249Z,18.20
2023-10-12T23:16:36.503Z,18.10
2023-10-12T23:19:59.571Z,18.00
2023-10-12T23:23:21.264Z,17.90
2023-10-12T23:26:42.945Z,17.80
2023-10-12T23:30:05.259Z,17.70
2023-10-12T23:33:26.960Z,17.60
2023-10-12T23:36:50.519Z,17.50
2023-10-12T23:40:12.909Z,17.50
2023-10-12T23:43:35.342Z,17.40
2023-10-12T23:46:57.497Z,17.30
2023-10-12T23:50:19.350Z,17.30
2023-10-12T23:53:42.652Z,17.20
2023-10-12T23:57:04.601Z,17.10
